createdAt,value
2023-04-20T00:01:48.891Z,21.70
2023-04-20T00:04:22.467Z,22.02
2023-04-20T00:06:56.981Z,21.60
2023-04-20T00:09:30.550Z,21.13
2023-04-20T00:12:04.059Z,21.10
2023-04-20T00:14:38.940Z,22.00
2023-04-20T00:17:12.433Z,24.92
2023-04-20T00:19:46.412Z,23.35
2023-04-20T00:22:19.898Z,23.52
2023-04-20T00:24:53.392Z,22.92
2023-04-20T00:27:26.952Z,19.00
2023-04-20T00:30:01.816Z,25.13
2023-04-20T00:32:37.323Z,25.00
2023-04-20T00:35:11.314Z,22.70
2023-04-20T00:37:44.904Z,23.77
2023-04-20T00:40:18.410Z,23.30
2023-04-20T00:42:51.909Z,22.17
2023-04-20T00:45:27.038Z,24.13
2023-04-20T00:48:00.692Z,22.05
2023-04-20T00:50:35.604Z,19.48
2023-04-20T00:53:10.054Z,20.48
2023-04-20T00:55:45.156Z,22.10
2023-04-20T00:58:19.247Z,19.85
2023-04-20T01:00:54.141Z,19.90
2023-04-20T01:03:27.845Z,20.77
2023-04-20T01:06:02.029Z,20.40
2023-04-20T01:08:35.608Z,19.38
2023-04-20T01:11:10.756Z,18.95
2023-04-20T01:13:44.720Z,19.13
2023-04-20T01:16:19.739Z,18.42
2023-04-20T01:18:53.268Z,17.00
2023-04-20T01:21:26.988Z,17.30
2023-04-20T01:24:02.108Z,16.05
2023-04-20T01:26:35.660Z,15.30
2023-04-20T01:29:09.139Z,14.25
2023-04-20T01:31:42.640Z,14.90
2023-04-20T01:34:17.698Z,15.07
2023-04-20T01:36:51.849Z,14.23
2023-04-20T01:39:26.882Z,15.80
2023-04-20T01:42:01.711Z,16.08
2023-04-20T01:44:35.209Z,14.27
2023-04-20T01:47:08.853Z,15.45
2023-04-20T01:49:42.404Z,15.18
2023-04-20T01:52:15.992Z,15.80
2023-04-20T01:54:50.854Z,16.02
2023-04-20T01:57:24.358Z,14.32
2023-04-20T01:59:58.222Z,16.50
2023-04-20T02:02:31.834Z,15.35
2023-04-20T02:05:09.137Z,16.73
2023-04-20T02:07:42.687Z,15.35
2023-04-20T02:10:17.548Z,16.65
2023-04-20T02:12:52.059Z,14.32
2023-04-20T02:15:25.760Z,17.35
2023-04-20T02:17:59.348Z,15.25
2023-04-20T02:20:32.888Z,17.90
2023-04-20T02:23:06.465Z,16.00
2023-04-20T02:25:43.518Z,16.95
2023-04-20T02:28:18.953Z,14.93
2023-04-20T02:30:52.494Z,16.15
2023-04-20T02:33:26.179Z,14.15
2023-04-20T02:36:00.937Z,16.55
2023-04-20T02:38:34.448Z,16.42
2023-04-20T02:41:09.589Z,15.18
2023-04-20T02:43:43.145Z,13.25
2023-04-20T02:46:19.174Z,14.38
2023-04-20T02:48:52.687Z,15.38
2023-04-20T02:51:26.154Z,16.83
2023-04-20T02:54:00.710Z,14.98
2023-04-20T02:56:37.163Z,17.83
2023-04-20T02:59:14.428Z,15.52
2023-04-20T03:01:58.826Z,15.23
2023-04-20T03:04:32.855Z,13.95
2023-04-20T03:07:15.278Z,15.15
2023-04-20T03:09:49.985Z,14.95
2023-04-20T03:12:26.226Z,15.68
2023-04-20T03:15:11.850Z,14.27
2023-04-20T03:17:57.266Z,12.40
2023-04-20T03:20:31.359Z,13.95
2023-04-20T03:23:05.418Z,14.00
2023-04-20T03:25:39.668Z,14.77
2023-04-20T03:28:24.333Z,13.73
2023-04-20T03:30:57.932Z,14.07
2023-04-20T03:33:31.593Z,12.52
2023-04-20T03:36:06.390Z,13.80
2023-04-20T03:38:39.947Z,13.23
2023-04-20T03:41:13.526Z,14.00
2023-04-20T03:43:48.412Z,17.05
2023-04-20T03:46:23.245Z,12.63
2023-04-20T03:48:57.081Z,16.17
2023-04-20T03:51:31.234Z,15.07
2023-04-20T03:54:06.005Z,14.75
2023-04-20T03:56:40.032Z,13.68
2023-04-20T03:59:15.215Z,14.02
2023-04-20T04:01:51.939Z,14.32
2023-04-20T04:04:26.597Z,12.05
2023-04-20T04:07:00.488Z,12.23
2023-04-20T04:09:34.026Z,13.75
2023-04-20T04:12:08.169Z,14.93
2023-04-20T04:14:43.055Z,11.10
2023-04-20T04:17:18.617Z,13.93
2023-04-20T04:19:52.205Z,11.52
2023-04-20T04:22:25.745Z,12.95
2023-04-20T04:25:20.348Z,12.25
2023-04-20T04:27:54.616Z,10.73
2023-04-20T04:30:29.667Z,11.15
2023-04-20T04:33:04.844Z,11.65
2023-04-20T04:35:41.688Z,12.25
2023-04-20T04:38:16.345Z,12.02
2023-04-20T04:40:54.027Z,13.18
2023-04-20T04:43:28.205Z,16.52
2023-04-20T04:46:13.376Z,19.13
2023-04-20T04:48:48.144Z,15.77
2023-04-20T04:51:21.629Z,17.40
2023-04-20T04:53:55.995Z,18.33
2023-04-20T04:56:29.672Z,17.00
2023-04-20T04:59:03.136Z,15.38
2023-04-20T05:01:38.053Z,19.30
2023-04-20T05:04:11.724Z,17.60
2023-04-20T05:06:45.363Z,16.73
2023-04-20T05:09:19.546Z,17.25
2023-04-20T05:11:53.428Z,14.85
2023-04-20T05:14:26.968Z,16.13
2023-04-20T05:17:02.079Z,16.15
2023-04-20T05:19:35.729Z,15.07
2023-04-20T05:22:09.274Z,13.95
2023-04-20T05:24:43.458Z,15.77
2023-04-20T05:27:17.037Z,13.13
2023-04-20T05:29:50.813Z,11.05
2023-04-20T05:32:25.915Z,11.52
2023-04-20T05:34:59.435Z,11.30
2023-04-20T05:37:34.229Z,12.45
2023-04-20T05:40:09.359Z,13.25
2023-04-20T05:42:42.842Z,11.13
2023-04-20T05:45:16.346Z,11.43
2023-04-20T05:48:00.227Z,10.55
2023-04-20T05:50:33.909Z,9.18
2023-04-20T05:53:07.533Z,11.05
2023-04-20T05:55:41.042Z,11.43
2023-04-20T05:58:14.581Z,12.15
2023-04-20T06:00:48.103Z,11.70
2023-04-20T06:03:23.073Z,10.20
2023-04-20T06:05:56.650Z,11.10
2023-04-20T06:08:30.168Z,10.45
2023-04-20T06:11:03.682Z,8.93
2023-04-20T06:13:37.182Z,5.43
2023-04-20T06:16:11.084Z,6.00
2023-04-20T06:18:46.093Z,5.60
2023-04-20T06:21:20.224Z,6.32
2023-04-20T06:23:53.718Z,5.97
2023-04-20T06:26:27.229Z,6.95
2023-04-20T06:29:01.032Z,7.70
2023-04-20T06:31:34.530Z,5.80
2023-04-20T06:34:09.399Z,5.45
2023-04-20T06:36:44.244Z,5.47
2023-04-20T06:39:18.502Z,5.88
2023-04-20T06:41:52.184Z,5.72
2023-04-20T06:44:28.309Z,5.18
2023-04-20T06:47:02.031Z,5.05
2023-04-20T06:49:39.233Z,7.13
2023-04-20T06:52:12.772Z,5.97
2023-04-20T06:54:46.302Z,7.32
2023-04-20T06:57:29.705Z,6.18
2023-04-20T07:00:03.325Z,6.65
2023-04-20T07:02:44.790Z,6.35
2023-04-20T07:05:20.388Z,6.47
2023-04-20T07:07:53.858Z,5.88
2023-04-20T07:10:27.462Z,6.22
2023-04-20T07:13:00.953Z,5.45
2023-04-20T07:15:34.506Z,5.97
2023-04-20T07:18:08.106Z,6.20
2023-04-20T07:20:44.716Z,5.13
2023-04-20T07:23:18.281Z,5.03
2023-04-20T07:25:51.782Z,6.13
2023-04-20T07:28:25.273Z,6.50
2023-04-20T07:30:59.489Z,5.22
2023-04-20T07:33:42.876Z,4.95
2023-04-20T07:36:17.802Z,5.68
2023-04-20T07:38:51.461Z,5.63
2023-04-20T07:41:25.110Z,5.80
2023-04-20T07:43:58.580Z,4.93
2023-04-20T07:46:32.308Z,6.10
2023-04-20T07:49:05.873Z,4.88
2023-04-20T07:51:40.792Z,5.57
2023-04-20T07:54:14.324Z,6.03
2023-04-20T07:56:47.820Z,5.00
2023-04-20T07:59:21.433Z,4.95
2023-04-20T08:01:59.990Z,5.68
2023-04-20T08:04:33.845Z,5.00
2023-04-20T08:07:09.334Z,4.63
2023-04-20T08:09:42.914Z,5.30
2023-04-20T08:12:16.530Z,5.43
2023-04-20T08:14:50.213Z,6.03
2023-04-20T08:17:23.908Z,5.47
2023-04-20T08:19:57.745Z,4.95
2023-04-20T08:22:33.433Z,5.07
2023-04-20T08:27:41.071Z,5.38
2023-04-20T08:30:14.786Z,5.57
2023-04-20T08:32:48.438Z,6.15
2023-04-20T08:35:22.104Z,6.07
2023-04-20T08:37:57.152Z,5.43
2023-04-20T08:40:32.206Z,5.68
2023-04-20T08:43:05.836Z,5.10
2023-04-20T08:45:40.069Z,5.60
2023-04-20T08:48:14.805Z,6.57
2023-04-20T08:50:49.583Z,5.32
2023-04-20T08:53:24.448Z,6.25
2023-04-20T08:55:57.933Z,7.10
2023-04-20T08:58:32.959Z,5.40
2023-04-20T09:01:06.665Z,4.78
2023-04-20T09:03:42.168Z,5.97
2023-04-20T09:06:17.531Z,5.13
2023-04-20T09:08:52.610Z,5.45
2023-04-20T09:11:27.640Z,5.30
2023-04-20T09:14:02.381Z,5.45
2023-04-20T09:16:35.946Z,5.35
2023-04-20T09:19:10.137Z,5.00
2023-04-20T09:21:50.733Z,4.82
2023-04-20T09:24:32.747Z,4.70
2023-04-20T09:27:17.029Z,5.45
2023-04-20T09:29:58.839Z,4.82
2023-04-20T09:32:33.154Z,5.43
2023-04-20T09:35:08.076Z,4.22
2023-04-20T09:37:49.125Z,4.63
2023-04-20T09:40:25.491Z,4.40
2023-04-20T09:43:04.755Z,4.60
2023-04-20T09:45:40.527Z,3.55
2023-04-20T09:48:18.910Z,4.22
2023-04-20T09:50:52.875Z,4.28
2023-04-20T09:53:27.416Z,4.22
2023-04-20T09:56:03.502Z,3.60
2023-04-20T09:58:39.596Z,4.05
2023-04-20T10:01:13.342Z,5.18
2023-04-20T10:03:47.578Z,3.83
2023-04-20T10:06:22.925Z,3.97
2023-04-20T10:08:57.001Z,4.18
2023-04-20T10:11:41.125Z,3.78
2023-04-20T10:14:26.867Z,3.40
2023-04-20T10:17:02.304Z,4.10
2023-04-20T10:19:40.800Z,4.22
2023-04-20T10:22:26.824Z,3.97
2023-04-20T10:25:01.406Z,3.35
2023-04-20T10:27:36.609Z,3.28
2023-04-20T10:30:11.507Z,3.13
2023-04-20T10:32:47.897Z,3.38
2023-04-20T10:35:21.473Z,2.80
2023-04-20T10:37:55.063Z,3.55
2023-04-20T10:40:29.017Z,3.30
2023-04-20T10:43:03.948Z,2.83
2023-04-20T10:45:38.493Z,3.15
2023-04-20T10:48:12.363Z,3.35
2023-04-20T10:50:46.079Z,3.40
2023-04-20T10:53:23.864Z,3.75
2023-04-20T10:56:01.131Z,3.38
2023-04-20T10:58:36.104Z,2.90
2023-04-20T11:01:09.664Z,3.75
2023-04-20T11:03:43.289Z,3.65
2023-04-20T11:06:16.931Z,3.15
2023-04-20T11:08:50.403Z,4.20
2023-04-20T11:11:27.511Z,3.13
2023-04-20T11:14:09.278Z,3.30
2023-04-20T11:16:53.341Z,3.15
2023-04-20T11:19:28.881Z,4.30
2023-04-20T11:22:03.374Z,3.05
2023-04-20T11:24:37.501Z,3.08
2023-04-20T11:27:22.191Z,3.45
2023-04-20T11:30:00.953Z,4.63
2023-04-20T11:32:34.942Z,3.80
2023-04-20T11:35:11.149Z,3.90
2023-04-20T11:37:49.047Z,3.92
2023-04-20T11:40:22.909Z,3.90
2023-04-20T11:42:56.470Z,3.47
2023-04-20T11:45:36.189Z,5.35
2023-04-20T11:48:10.630Z,4.35
2023-04-20T11:50:44.405Z,4.07
2023-04-20T11:53:18.066Z,3.33
2023-04-20T11:55:52.223Z,3.30
2023-04-20T11:58:25.821Z,3.65
2023-04-20T12:01:01.264Z,4.07
2023-04-20T12:03:35.045Z,3.45
2023-04-20T12:06:08.711Z,3.10
2023-04-20T12:08:43.193Z,4.25
2023-04-20T12:11:17.816Z,3.28
2023-04-20T12:13:51.372Z,4.05
2023-04-20T12:16:26.366Z,3.33
2023-04-20T12:18:59.995Z,3.92
2023-04-20T12:21:33.562Z,4.70
2023-04-20T12:24:07.909Z,4.18
2023-04-20T12:26:41.380Z,4.88
2023-04-20T12:29:15.123Z,3.60
2023-04-20T12:31:50.064Z,3.85
2023-04-20T12:34:23.578Z,3.60
2023-04-20T12:36:57.058Z,3.65
2023-04-20T12:39:30.524Z,3.60
2023-04-20T12:42:04.122Z,3.10
2023-04-20T12:44:37.613Z,4.18
2023-04-20T12:47:13.596Z,3.70
2023-04-20T12:49:47.200Z,3.38
2023-04-20T12:52:20.664Z,3.53
2023-04-20T12:54:54.124Z,3.47
2023-04-20T12:57:27.600Z,3.83
2023-04-20T13:00:02.897Z,3.85
2023-04-20T13:02:39.731Z,3.80
2023-04-20T13:05:13.346Z,4.63
2023-04-20T13:07:46.860Z,3.75
2023-04-20T13:10:20.342Z,4.13
2023-04-20T13:12:53.838Z,4.32
2023-04-20T13:15:38.004Z,3.75
2023-04-20T13:18:14.892Z,3.80
2023-04-20T13:20:48.477Z,3.60
2023-04-20T13:23:22.015Z,3.70
2023-04-20T13:25:56.902Z,4.70
2023-04-20T13:28:30.368Z,4.22
2023-04-20T13:31:03.876Z,4.72
2023-04-20T13:33:38.884Z,3.95
2023-04-20T13:36:12.369Z,3.88
2023-04-20T13:38:46.410Z,4.45
2023-04-20T13:41:19.970Z,4.28
2023-04-20T13:43:53.770Z,11.30
2023-04-20T13:46:27.676Z,6.13
2023-04-20T13:49:02.758Z,3.97
2023-04-20T13:51:36.309Z,3.97
2023-04-20T13:54:09.957Z,3.85
2023-04-20T13:56:43.483Z,3.88
2023-04-20T13:59:17.065Z,4.43
2023-04-20T14:01:50.882Z,4.50
2023-04-20T14:04:26.006Z,4.68
2023-04-20T14:06:59.591Z,4.72
2023-04-20T14:09:33.160Z,4.03
2023-04-20T14:12:06.887Z,3.90
2023-04-20T14:14:41.024Z,3.75
2023-04-20T14:17:14.669Z,3.92
2023-04-20T14:19:50.124Z,3.22
2023-04-20T14:22:23.903Z,3.97
2023-04-20T14:24:57.549Z,4.00
2023-04-20T14:27:31.234Z,4.32
2023-04-20T14:30:05.993Z,5.05
2023-04-20T14:32:39.996Z,4.70
2023-04-20T14:35:14.935Z,4.55
2023-04-20T14:37:48.456Z,3.85
2023-04-20T14:40:22.406Z,3.08
2023-04-20T14:42:56.058Z,5.97
2023-04-20T14:45:30.431Z,3.45
2023-04-20T14:48:04.072Z,3.58
2023-04-20T14:50:39.009Z,3.28
2023-04-20T14:53:12.509Z,2.97
2023-04-20T14:55:46.079Z,3.38
2023-04-20T14:58:20.582Z,4.70
2023-04-20T15:00:54.244Z,5.05
2023-04-20T15:03:28.002Z,4.53
2023-04-20T15:06:04.156Z,4.93
2023-04-20T15:08:37.652Z,4.22
2023-04-20T15:11:11.203Z,2.97
2023-04-20T15:13:44.700Z,2.90
2023-04-20T15:16:18.205Z,3.13
2023-04-20T15:18:53.133Z,3.20
2023-04-20T15:21:28.552Z,3.65
2023-04-20T15:24:02.025Z,2.97
2023-04-20T15:26:35.808Z,3.10
2023-04-20T15:29:09.272Z,3.33
2023-04-20T15:31:45.409Z,2.75
2023-04-20T15:34:19.351Z,2.47
2023-04-20T15:36:54.397Z,3.20
2023-04-20T15:39:27.892Z,2.33
2023-04-20T15:42:02.937Z,3.38
2023-04-20T15:44:36.710Z,4.00
2023-04-20T15:47:10.836Z,4.10
2023-04-20T15:49:44.526Z,4.53
2023-04-20T15:52:19.831Z,3.80
2023-04-20T15:54:54.492Z,2.72
2023-04-20T15:57:28.056Z,2.30
2023-04-20T16:00:01.522Z,3.00
2023-04-20T16:02:35.581Z,2.95
2023-04-20T16:05:09.586Z,2.90
2023-04-20T16:07:44.520Z,3.40
2023-04-20T16:10:18.141Z,3.17
2023-04-20T16:12:51.665Z,2.97
2023-04-20T16:15:25.747Z,3.38
2023-04-20T16:18:00.078Z,2.97
2023-04-20T16:20:33.623Z,4.32
2023-04-20T16:23:08.525Z,3.22
2023-04-20T16:25:42.190Z,2.78
2023-04-20T16:28:16.149Z,3.78
2023-04-20T16:30:49.707Z,2.88
2023-04-20T16:33:23.700Z,3.00
2023-04-20T16:35:57.193Z,2.53
2023-04-20T16:38:32.040Z,3.03
2023-04-20T16:41:05.744Z,2.97
2023-04-20T16:43:40.804Z,3.85
2023-04-20T16:46:16.363Z,2.97
2023-04-20T16:48:50.794Z,3.22
2023-04-20T16:51:24.307Z,3.65
2023-04-20T16:54:00.003Z,2.67
2023-04-20T16:56:33.467Z,3.08
2023-04-20T16:59:07.229Z,2.90
2023-04-20T17:01:40.821Z,4.85
2023-04-20T17:04:14.901Z,4.10
2023-04-20T17:06:48.410Z,3.83
2023-04-20T17:09:23.915Z,3.92
2023-04-20T17:11:57.808Z,3.20
2023-04-20T17:14:32.271Z,4.28
2023-04-20T17:17:05.824Z,3.88
2023-04-20T17:19:40.684Z,2.90
2023-04-20T17:22:14.216Z,4.03
2023-04-20T17:24:49.060Z,3.80
2023-04-20T17:27:23.151Z,3.55
2023-04-20T17:29:57.418Z,3.35
2023-04-20T17:32:30.893Z,4.28
2023-04-20T17:35:07.821Z,3.67
2023-04-20T17:37:42.286Z,4.38
2023-04-20T17:40:17.156Z,9.93
2023-04-20T17:42:50.613Z,7.60
2023-04-20T17:45:24.211Z,7.68
2023-04-20T17:47:57.972Z,5.50
2023-04-20T17:50:31.475Z,5.82
2023-04-20T17:53:07.010Z,5.30
2023-04-20T17:55:42.205Z,10.38
2023-04-20T17:58:16.777Z,7.03
2023-04-20T18:00:50.547Z,6.70
2023-04-20T18:03:24.331Z,5.80
2023-04-20T18:05:57.921Z,4.22
2023-04-20T18:08:31.459Z,4.00
2023-04-20T18:11:07.275Z,4.53
2023-04-20T18:13:40.876Z,3.72
2023-04-20T18:16:14.480Z,4.53
2023-04-20T18:18:48.134Z,4.13
2023-04-20T18:21:22.306Z,4.10
2023-04-20T18:23:55.887Z,3.90
2023-04-20T18:26:30.761Z,4.05
2023-04-20T18:29:04.386Z,4.30
2023-04-20T18:31:38.088Z,4.43
2023-04-20T18:34:12.882Z,4.60
2023-04-20T18:36:46.437Z,4.72
2023-04-20T18:39:19.922Z,4.07
2023-04-20T18:41:54.766Z,5.00
2023-04-20T18:44:29.266Z,4.43
2023-04-20T18:47:02.951Z,4.53
2023-04-20T18:49:36.483Z,3.78
2023-04-20T18:52:10.008Z,3.10
2023-04-20T18:54:43.580Z,4.43
2023-04-20T18:57:18.570Z,4.28
2023-04-20T18:59:52.089Z,4.25
2023-04-20T19:02:26.241Z,4.07
2023-04-20T19:04:59.969Z,4.18
2023-04-20T19:07:33.614Z,5.85
2023-04-20T19:10:08.436Z,4.60
2023-04-20T19:12:43.546Z,5.35
2023-04-20T19:15:17.120Z,4.03
2023-04-20T19:17:50.863Z,4.88
2023-04-20T19:20:25.040Z,4.55
2023-04-20T19:22:58.788Z,5.13
2023-04-20T19:25:32.421Z,4.53
2023-04-20T19:28:09.243Z,5.72
2023-04-20T19:30:43.133Z,5.28
2023-04-20T19:33:16.822Z,5.07
2023-04-20T19:35:51.572Z,4.68
2023-04-20T19:38:26.339Z,5.00
2023-04-20T19:41:00.118Z,4.10
2023-04-20T19:43:36.289Z,5.18
2023-04-20T19:46:10.021Z,5.32
2023-04-20T19:48:43.629Z,5.38
2023-04-20T19:51:17.189Z,4.85
2023-04-20T19:53:50.851Z,4.88
2023-04-20T19:56:24.362Z,4.85
2023-04-20T19:58:59.434Z,5.07
2023-04-20T20:01:32.989Z,5.53
2023-04-20T20:04:06.619Z,5.10
2023-04-20T20:06:40.495Z,5.68
2023-04-20T20:09:14.315Z,6.65
2023-04-20T20:11:50.286Z,6.57
2023-04-20T20:14:25.296Z,6.25
2023-04-20T20:16:58.849Z,6.82
2023-04-20T20:19:32.516Z,6.88
2023-04-20T20:22:06.025Z,7.78
2023-04-20T20:24:39.517Z,7.50
2023-04-20T20:27:13.340Z,6.57
2023-04-20T20:29:48.199Z,7.38
2023-04-20T20:32:22.187Z,6.93
2023-04-20T20:34:55.690Z,6.40
2023-04-20T20:37:34.567Z,7.18
2023-04-20T20:40:12.018Z,7.07
2023-04-20T20:42:45.998Z,5.28
2023-04-20T20:45:21.996Z,6.28
2023-04-20T20:47:56.185Z,6.28
2023-04-20T20:50:29.736Z,7.00
2023-04-20T20:53:05.079Z,7.22
2023-04-20T20:55:38.617Z,6.55
2023-04-20T20:58:12.139Z,5.95
2023-04-20T21:00:47.466Z,6.28
2023-04-20T21:03:21.563Z,6.80
2023-04-20T21:05:55.174Z,5.88
2023-04-20T21:08:28.684Z,6.18
2023-04-20T21:11:02.184Z,6.30
2023-04-20T21:13:35.686Z,6.05
2023-04-20T21:16:10.625Z,5.50
2023-04-20T21:18:44.228Z,5.68
2023-04-20T21:21:17.735Z,5.45
2023-04-20T21:23:51.960Z,6.55
2023-04-20T21:26:25.508Z,5.43
2023-04-20T21:28:59.145Z,5.47
2023-04-20T21:31:34.597Z,5.22
2023-04-20T21:34:08.209Z,7.20
2023-04-20T21:36:41.694Z,7.70
2023-04-20T21:39:15.398Z,9.38
2023-04-20T21:41:48.897Z,8.85
2023-04-20T21:44:22.451Z,10.68
2023-04-20T21:46:57.361Z,11.35
2023-04-20T21:49:30.853Z,10.93
2023-04-20T21:52:04.337Z,9.73
2023-04-20T21:54:38.020Z,9.18
2023-04-20T21:57:11.530Z,10.73
2023-04-20T21:59:45.400Z,9.73
2023-04-20T22:02:20.325Z,9.82
2023-04-20T22:04:53.924Z,9.20
2023-04-20T22:07:27.672Z,8.95
2023-04-20T22:10:01.934Z,9.38
2023-04-20T22:12:40.254Z,10.23
2023-04-20T22:15:15.491Z,9.57
2023-04-20T22:17:50.572Z,9.55
2023-04-20T22:20:24.049Z,8.95
2023-04-20T22:22:57.535Z,10.00
2023-04-20T22:25:31.074Z,10.95
2023-04-20T22:28:04.610Z,9.55
2023-04-20T22:30:38.100Z,10.20
2023-04-20T22:33:13.065Z,9.27
2023-04-20T22:35:46.631Z,9.57
2023-04-20T22:38:20.170Z,9.18
2023-04-20T22:40:54.112Z,10.45
2023-04-20T22:43:27.597Z,9.45
2023-04-20T22:46:01.054Z,10.18
2023-04-20T22:48:36.615Z,10.55
2023-04-20T22:51:10.082Z,9.60
2023-04-20T22:53:44.129Z,10.63
2023-04-20T22:56:17.743Z,10.20
2023-04-20T22:58:51.200Z,10.43
2023-04-20T23:01:24.677Z,9.70
2023-04-20T23:03:59.864Z,12.10
2023-04-20T23:06:34.515Z,10.27
2023-04-20T23:09:08.458Z,10.45
2023-04-20T23:11:43.544Z,10.68
2023-04-20T23:14:16.988Z,8.90
2023-04-20T23:16:50.589Z,10.52
2023-04-20T23:19:25.803Z,10.05
2023-04-20T23:21:59.284Z,10.75
2023-04-20T23:24:32.760Z,10.38
2023-04-20T23:27:06.440Z,11.85
2023-04-20T23:29:39.937Z,11.32
2023-04-20T23:32:13.480Z,10.05
2023-04-20T23:34:48.366Z,9.35
2023-04-20T23:37:21.817Z,9.48
2023-04-20T23:39:55.266Z,8.77
2023-04-20T23:42:28.755Z,9.32
2023-04-20T23:45:02.208Z,9.60
2023-04-20T23:47:35.836Z,9.52
2023-04-20T23:50:11.497Z,8.77
2023-04-20T23:52:44.961Z,9.45
2023-04-20T23:55:18.565Z,7.88
2023-04-20T23:57:52.838Z,7.78
